Tongo Airport

Jump to: basic info | weather | comments

Related pages: nearby airports | nearby navaids | notams | map

Basic information (top)

Codes: GFTO
Location: lon 8.217000, lat -11.067000, elev 750 ft / 229 m msl
Status: small_airport

Weather (top)

Current conditions for Roberts International Airport 126nm (234km) SSE (rec'd 2014/04/16 10:00Z):

GLRB 161000Z 20007KT 9999 BKN018 30/25 Q1012 NOSIG

Airport forecast for Roberts International Airport 126nm (234km) SSE (rec'd 2014/04/16 06:54Z):

TAF TAF GLRB 160400Z 1606/1712 24011KT 9999 BKN020 
      BECMG 1606/1608 02004KT 8000 SCT012 
     FM160900 20008KT 9999 BKN018 
      TEMPO 1616/1622 VRB03KT 9999 SCT015

Latest comments (top)

No comments yet for Tongo Airport

More... (top)

See also NOTAMs and nearby airports and navaids, or visit the Tongo Airport page at the main OurAirports website..